createdAt,value
2023-04-23T00:01:41.874Z,23.37
2023-04-23T00:04:08.740Z,28.67
2023-04-23T00:06:35.377Z,23.63
2023-04-23T00:09:03.145Z,25.90
2023-04-23T00:11:30.489Z,25.83
2023-04-23T00:13:57.110Z,26.80
2023-04-23T00:16:24.077Z,23.67
2023-04-23T00:18:50.358Z,27.23
2023-04-23T00:21:16.688Z,24.77
2023-04-23T00:23:42.829Z,27.80
2023-04-23T00:26:08.959Z,23.80
2023-04-23T00:28:35.880Z,24.17
2023-04-23T00:31:02.045Z,25.50
2023-04-23T00:33:28.142Z,25.80
2023-04-23T00:35:54.252Z,24.43
2023-04-23T00:38:20.462Z,25.33
2023-04-23T00:40:46.612Z,25.50
2023-04-23T00:43:12.875Z,28.23
2023-04-23T00:45:39.800Z,26.20
2023-04-23T00:48:06.852Z,27.47
2023-04-23T00:50:33.108Z,26.87
2023-04-23T00:52:59.682Z,25.33
2023-04-23T00:55:26.080Z,28.10
2023-04-23T00:57:53.352Z,25.83
2023-04-23T01:00:19.923Z,25.43
2023-04-23T01:02:47.739Z,25.20
2023-04-23T01:05:15.697Z,27.57
2023-04-23T01:07:43.109Z,26.33
2023-04-23T01:10:10.213Z,27.87
2023-04-23T01:12:36.432Z,28.27
2023-04-23T01:15:02.961Z,24.63
2023-04-23T01:17:29.335Z,32.63
2023-04-23T01:19:56.161Z,33.63
2023-04-23T01:22:23.155Z,32.93
2023-04-23T01:24:49.706Z,34.30
2023-04-23T01:27:16.323Z,35.33
2023-04-23T01:29:42.571Z,35.53
2023-04-23T01:32:08.821Z,44.30
2023-04-23T01:34:35.545Z,42.43
2023-04-23T01:37:03.492Z,35.67
2023-04-23T01:39:30.313Z,38.37
2023-04-23T01:41:57.544Z,40.80
2023-04-23T01:44:23.719Z,41.03
2023-04-23T01:46:49.842Z,39.23
2023-04-23T01:49:16.306Z,37.23
2023-04-23T01:51:42.726Z,37.37
2023-04-23T01:54:08.829Z,35.27
2023-04-23T01:56:35.754Z,34.87
2023-04-23T01:59:02.017Z,34.30
2023-04-23T02:01:41.898Z,31.97
2023-04-23T02:04:08.254Z,30.43
2023-04-23T02:06:34.608Z,32.87
2023-04-23T02:09:00.708Z,36.43
2023-04-23T02:11:26.810Z,32.13
2023-04-23T02:13:53.691Z,34.33
2023-04-23T02:16:19.956Z,34.93
2023-04-23T02:18:46.130Z,37.27
2023-04-23T02:21:12.400Z,35.37
2023-04-23T02:23:38.703Z,32.10
2023-04-23T02:26:05.075Z,34.87
2023-04-23T02:28:31.406Z,34.23
2023-04-23T02:30:58.451Z,34.40
2023-04-23T02:33:25.808Z,34.77
2023-04-23T02:35:51.945Z,40.20
2023-04-23T02:38:18.063Z,35.23
2023-04-23T02:40:44.164Z,31.43
2023-04-23T02:43:10.476Z,33.23
2023-04-23T02:45:36.592Z,32.13
2023-04-23T02:48:03.756Z,33.10
2023-04-23T02:50:29.935Z,37.90
2023-04-23T02:52:56.223Z,33.50
2023-04-23T02:55:24.468Z,34.57
2023-04-23T02:57:50.712Z,30.50
2023-04-23T03:00:17.359Z,31.80
2023-04-23T03:02:43.644Z,35.37
2023-04-23T03:05:10.724Z,32.90
2023-04-23T03:07:36.863Z,32.93
2023-04-23T03:10:03.333Z,35.23
2023-04-23T03:12:29.493Z,33.70
2023-04-23T03:14:55.624Z,33.30
2023-04-23T03:17:21.802Z,34.80
2023-04-23T03:19:48.140Z,34.97
2023-04-23T03:22:14.872Z,32.90
2023-04-23T03:24:41.218Z,32.90
2023-04-23T03:27:07.623Z,33.23
2023-04-23T03:29:33.728Z,32.27
2023-04-23T03:32:00.185Z,30.73
2023-04-23T03:34:26.354Z,29.50
2023-04-23T03:36:52.482Z,34.87
2023-04-23T03:39:19.266Z,33.97
2023-04-23T03:41:45.400Z,35.63
2023-04-23T03:44:11.718Z,33.40
2023-04-23T03:46:38.106Z,37.60
2023-04-23T03:49:04.307Z,36.00
2023-04-23T03:51:31.091Z,33.03
2023-04-23T03:53:57.302Z,32.77
2023-04-23T03:56:26.459Z,35.63
2023-04-23T03:58:53.221Z,34.60
2023-04-23T04:01:19.358Z,38.30
2023-04-23T04:03:45.617Z,34.67
2023-04-23T04:06:11.838Z,34.13
2023-04-23T04:08:37.983Z,33.70
2023-04-23T04:11:04.146Z,37.03
2023-04-23T04:13:31.082Z,38.00
2023-04-23T04:15:57.268Z,41.43
2023-04-23T04:18:23.832Z,39.10
2023-04-23T04:20:51.397Z,38.03
2023-04-23T04:23:17.590Z,36.50
2023-04-23T04:25:45.117Z,37.03
2023-04-23T04:28:11.353Z,34.37
2023-04-23T04:30:38.803Z,35.50
2023-04-23T04:33:04.962Z,39.13
2023-04-23T04:35:31.142Z,39.10
2023-04-23T04:37:58.058Z,38.60
2023-04-23T04:40:25.701Z,38.70
2023-04-23T04:42:52.142Z,38.63
2023-04-23T04:45:18.879Z,37.13
2023-04-23T04:47:45.676Z,38.57
2023-04-23T04:50:11.861Z,39.03
2023-04-23T04:52:38.026Z,37.07
2023-04-23T04:55:05.062Z,35.60
2023-04-23T04:57:31.233Z,39.47
2023-04-23T04:59:57.528Z,38.13
2023-04-23T05:02:23.784Z,40.97
2023-04-23T05:04:50.648Z,38.53
2023-04-23T05:07:16.768Z,39.97
2023-04-23T05:09:44.934Z,38.63
2023-04-23T05:12:11.466Z,38.20
2023-04-23T05:14:37.578Z,38.03
2023-04-23T05:17:04.015Z,33.37
2023-04-23T05:19:30.843Z,33.87
2023-04-23T05:21:57.597Z,33.33
2023-04-23T05:24:23.723Z,33.27
2023-04-23T05:26:50.059Z,31.90
2023-04-23T05:29:18.483Z,32.17
2023-04-23T05:31:45.612Z,33.37
2023-04-23T05:34:11.998Z,32.13
2023-04-23T05:36:39.198Z,31.63
2023-04-23T05:39:05.982Z,26.80
2023-04-23T05:41:32.409Z,26.33
2023-04-23T05:43:58.651Z,26.27
2023-04-23T05:46:24.795Z,32.73
2023-04-23T05:48:50.961Z,25.77
2023-04-23T05:51:17.599Z,26.47
2023-04-23T05:53:43.748Z,21.53
2023-04-23T05:56:10.507Z,24.50
2023-04-23T05:58:38.003Z,24.77
2023-04-23T06:01:04.218Z,27.17
2023-04-23T06:03:30.586Z,23.57
2023-04-23T06:05:56.943Z,24.67
2023-04-23T06:08:24.895Z,24.10
2023-04-23T06:10:51.318Z,23.63
2023-04-23T06:13:18.279Z,19.20
2023-04-23T06:15:44.498Z,24.90
2023-04-23T06:18:10.727Z,23.87
2023-04-23T06:20:37.121Z,23.27
2023-04-23T06:23:03.271Z,20.87
2023-04-23T06:25:29.429Z,25.13
2023-04-23T06:27:57.126Z,21.27
2023-04-23T06:30:24.144Z,23.60
2023-04-23T06:32:50.365Z,24.50
2023-04-23T06:35:16.538Z,22.43
2023-04-23T06:37:42.719Z,25.13
2023-04-23T06:40:09.681Z,20.57
2023-04-23T06:42:35.801Z,23.80
2023-04-23T06:45:05.918Z,19.57
2023-04-23T06:47:33.297Z,21.83
2023-04-23T06:49:59.781Z,20.27
2023-04-23T06:52:26.462Z,20.27
2023-04-23T06:54:52.672Z,21.00
2023-04-23T06:57:18.764Z,23.13
2023-04-23T06:59:44.892Z,19.73
2023-04-23T07:02:11.144Z,21.07
2023-04-23T07:04:38.085Z,20.37
2023-04-23T07:07:04.292Z,18.03
2023-04-23T07:09:30.889Z,22.47
2023-04-23T07:11:57.070Z,17.43
2023-04-23T07:14:23.517Z,17.20
2023-04-23T07:16:50.195Z,16.87
2023-04-23T07:19:16.437Z,16.47
2023-04-23T07:21:43.215Z,19.20
2023-04-23T07:24:09.303Z,16.87
2023-04-23T07:26:35.852Z,15.30
2023-04-23T07:29:02.414Z,15.07
2023-04-23T07:31:28.761Z,12.63
2023-04-23T07:33:55.032Z,14.47
2023-04-23T07:36:22.061Z,14.67
2023-04-23T07:38:48.917Z,17.97
2023-04-23T07:41:15.261Z,11.93
2023-04-23T07:43:42.290Z,16.90
2023-04-23T07:46:08.504Z,13.70
2023-04-23T07:48:35.150Z,11.60
2023-04-23T07:51:01.370Z,12.27
2023-04-23T07:53:27.802Z,11.77
2023-04-23T07:55:55.654Z,11.40
2023-04-23T07:58:22.126Z,10.37
2023-04-23T08:00:48.247Z,9.93
2023-04-23T08:03:14.645Z,11.40
2023-04-23T08:05:41.271Z,8.87
2023-04-23T08:08:07.662Z,9.23
2023-04-23T08:10:33.921Z,11.27
2023-04-23T08:13:00.765Z,10.33
2023-04-23T08:15:26.929Z,8.67
2023-04-23T08:17:53.238Z,9.53
2023-04-23T08:20:19.665Z,7.57
2023-04-23T08:22:45.915Z,8.80
2023-04-23T08:25:12.446Z,9.67
2023-04-23T08:27:38.661Z,8.10
2023-04-23T08:30:07.852Z,10.67
2023-04-23T08:32:34.005Z,8.73
2023-04-23T08:35:00.203Z,14.97
2023-04-23T08:37:30.721Z,7.27
2023-04-23T08:39:57.660Z,5.47
2023-04-23T08:42:29.817Z,4.80
2023-04-23T08:44:56.142Z,4.00
2023-04-23T08:47:24.704Z,7.47
2023-04-23T08:49:53.990Z,4.47
2023-04-23T08:52:23.382Z,9.37
2023-04-23T08:54:52.330Z,6.37
2023-04-23T08:57:18.821Z,3.37
2023-04-23T08:59:45.766Z,4.13
2023-04-23T09:02:12.085Z,10.70
2023-04-23T09:04:38.934Z,4.23
2023-04-23T09:07:07.433Z,3.87
2023-04-23T09:09:33.720Z,3.30
2023-04-23T09:12:00.460Z,4.83
2023-04-23T09:14:26.801Z,5.03
2023-04-23T09:16:53.665Z,4.50
2023-04-23T09:19:20.024Z,11.67
2023-04-23T09:21:46.892Z,3.37
2023-04-23T09:24:14.242Z,5.83
2023-04-23T09:26:45.188Z,3.43
2023-04-23T09:29:16.530Z,3.60
2023-04-23T09:31:43.403Z,4.00
2023-04-23T09:34:09.653Z,3.77
2023-04-23T09:36:37.161Z,3.50
2023-04-23T09:39:11.953Z,4.10
2023-04-23T09:41:40.366Z,4.63
2023-04-23T09:44:08.033Z,4.60
2023-04-23T09:46:35.684Z,6.10
2023-04-23T09:49:03.435Z,5.07
2023-04-23T09:51:29.852Z,6.97
2023-04-23T09:53:56.258Z,4.70
2023-04-23T09:56:24.145Z,8.13
2023-04-23T09:58:50.280Z,3.77
2023-04-23T10:01:17.737Z,2.93
2023-04-23T10:03:44.439Z,5.00
2023-04-23T10:06:25.487Z,6.97
2023-04-23T10:08:59.531Z,8.60
2023-04-23T10:11:26.537Z,7.33
2023-04-23T10:13:53.948Z,7.87
2023-04-23T10:16:25.241Z,3.80
2023-04-23T10:18:56.119Z,5.00
2023-04-23T10:21:28.301Z,3.03
2023-04-23T10:23:58.471Z,4.30
2023-04-23T10:26:26.206Z,2.73
2023-04-23T10:28:54.149Z,4.30
2023-04-23T10:31:21.847Z,4.47
2023-04-23T10:33:58.148Z,2.43
2023-04-23T10:36:26.754Z,2.73
2023-04-23T10:38:58.427Z,3.77
2023-04-23T10:41:31.440Z,3.00
2023-04-23T10:43:57.758Z,1.70
2023-04-23T10:46:30.560Z,3.00
2023-04-23T10:49:13.960Z,1.43
2023-04-23T10:54:14.009Z,4.23
2023-04-23T10:56:41.206Z,3.33
2023-04-23T10:59:07.907Z,2.83
2023-04-23T11:01:34.092Z,1.47
2023-04-23T11:04:19.381Z,5.07
2023-04-23T11:06:58.358Z,3.43
2023-04-23T11:09:31.854Z,2.17
2023-04-23T11:11:59.311Z,2.83
2023-04-23T11:14:42.905Z,3.57
2023-04-23T11:17:11.699Z,5.20
2023-04-23T11:19:38.190Z,2.93
2023-04-23T11:22:05.406Z,3.90
2023-04-23T11:24:33.109Z,2.73
2023-04-23T11:27:01.828Z,1.90
2023-04-23T11:29:28.295Z,1.70
2023-04-23T11:32:02.723Z,2.17
2023-04-23T11:34:30.150Z,3.70
2023-04-23T11:36:58.800Z,1.90
2023-04-23T11:39:25.038Z,3.20
2023-04-23T11:41:51.891Z,6.60
2023-04-23T11:44:19.609Z,3.50
2023-04-23T11:46:46.384Z,2.00
2023-04-23T11:49:13.047Z,3.60
2023-04-23T11:51:42.251Z,3.73
2023-04-23T11:54:08.406Z,5.43
2023-04-23T11:56:35.256Z,4.63
2023-04-23T11:59:02.924Z,3.87
2023-04-23T12:01:40.961Z,3.33
2023-04-23T12:04:14.693Z,3.10
2023-04-23T12:06:42.988Z,2.97
2023-04-23T12:09:10.183Z,3.50
2023-04-23T12:11:36.531Z,6.03
2023-04-23T12:14:02.888Z,3.43
2023-04-23T12:16:40.616Z,3.90
2023-04-23T12:19:12.333Z,2.37
2023-04-23T12:21:48.616Z,4.20
2023-04-23T12:24:15.103Z,5.63
2023-04-23T12:26:41.732Z,4.97
2023-04-23T12:29:07.938Z,3.83
2023-04-23T12:31:37.048Z,4.70
2023-04-23T12:34:05.140Z,2.23
2023-04-23T12:36:32.098Z,3.83
2023-04-23T12:39:21.152Z,3.43
2023-04-23T12:41:48.639Z,2.43
2023-04-23T12:44:14.930Z,1.83
2023-04-23T12:46:41.099Z,6.10
2023-04-23T12:49:07.881Z,3.63
2023-04-23T12:51:34.019Z,3.07
2023-04-23T12:54:00.341Z,2.87
2023-04-23T12:56:26.490Z,2.23
2023-04-23T12:58:52.648Z,1.97
2023-04-23T13:01:18.901Z,2.00
2023-04-23T13:03:45.112Z,2.73
2023-04-23T13:06:11.951Z,3.87
2023-04-23T13:08:38.552Z,5.60
2023-04-23T13:11:04.866Z,3.83
2023-04-23T15:17:36.751Z,4.07
2023-04-23T15:20:03.311Z,3.43
2023-04-23T15:22:29.476Z,2.77
2023-04-23T15:24:55.722Z,2.63
2023-04-23T15:27:21.950Z,1.80
2023-04-23T15:29:48.666Z,1.73
2023-04-23T15:32:15.755Z,3.40
2023-04-23T15:34:42.565Z,4.43
2023-04-23T15:37:08.716Z,4.73
2023-04-23T15:39:34.858Z,4.60
2023-04-23T15:42:02.583Z,1.57
2023-04-23T15:44:28.782Z,3.17
2023-04-23T15:46:54.939Z,5.07
2023-04-23T15:49:21.076Z,5.97
2023-04-23T15:51:47.869Z,5.00
2023-04-23T15:54:14.043Z,6.60
2023-04-23T15:56:40.213Z,3.30
2023-04-23T15:59:06.901Z,2.87
2023-04-23T16:01:33.111Z,5.50
2023-04-23T16:04:09.429Z,8.80
2023-04-23T16:06:36.773Z,7.37
2023-04-23T16:09:06.432Z,5.70
2023-04-23T16:11:32.587Z,7.50
2023-04-23T16:13:58.991Z,6.43
2023-04-23T16:16:25.277Z,9.77
2023-04-23T16:18:51.618Z,7.90
2023-04-23T16:21:17.971Z,7.03
2023-04-23T16:23:44.141Z,7.70
2023-04-23T16:26:10.891Z,7.40
2023-04-23T16:28:37.117Z,7.67
2023-04-23T16:31:03.350Z,9.77
2023-04-23T16:33:29.971Z,9.57
2023-04-23T16:35:56.454Z,6.80
2023-04-23T16:38:22.837Z,5.13
2023-04-23T16:40:49.435Z,9.53
2023-04-23T16:43:16.367Z,7.63
2023-04-23T16:45:42.492Z,4.63
2023-04-23T16:48:12.121Z,6.00
2023-04-23T16:50:38.418Z,11.77
2023-04-23T16:53:04.556Z,9.43
2023-04-23T16:55:30.657Z,4.47
2023-04-23T16:57:56.780Z,4.37
2023-04-23T17:00:23.668Z,4.53
2023-04-23T17:02:50.004Z,5.90
2023-04-23T17:05:16.332Z,6.53
2023-04-23T17:07:43.169Z,4.93
2023-04-23T17:10:10.280Z,5.93
2023-04-23T17:12:36.877Z,8.33
2023-04-23T17:15:03.700Z,5.10
2023-04-23T17:17:30.743Z,5.37
2023-04-23T17:19:56.949Z,3.80
2023-04-23T17:22:23.292Z,4.87
2023-04-23T17:24:50.029Z,5.53
2023-04-23T17:27:16.194Z,4.07
2023-04-23T17:29:42.340Z,5.20
2023-04-23T17:32:09.288Z,4.97
2023-04-23T17:34:36.192Z,6.10
2023-04-23T17:37:02.391Z,8.50
2023-04-23T17:39:28.521Z,8.77
2023-04-23T17:41:56.656Z,5.60
2023-04-23T17:44:22.758Z,4.67
2023-04-23T17:46:48.936Z,7.37
2023-04-23T17:49:15.090Z,3.87
2023-04-23T17:51:41.978Z,3.60
2023-04-23T17:54:08.192Z,5.43
2023-04-23T17:56:34.916Z,6.80
2023-04-23T17:59:01.052Z,4.40
2023-04-23T18:01:27.275Z,7.30
2023-04-23T18:03:54.135Z,4.57
2023-04-23T18:06:21.840Z,6.70
2023-04-23T18:08:48.873Z,5.43
2023-04-23T18:11:14.985Z,4.73
2023-04-23T18:13:42.248Z,2.87
2023-04-23T18:16:08.396Z,4.73
2023-04-23T18:18:34.586Z,2.53
2023-04-23T18:21:02.115Z,3.33
2023-04-23T18:23:28.516Z,4.33
2023-04-23T18:25:55.812Z,4.57
2023-04-23T18:28:22.121Z,7.13
2023-04-23T18:30:48.348Z,3.83
2023-04-23T18:33:25.594Z,3.63
2023-04-23T18:35:54.741Z,2.43
2023-04-23T18:38:24.084Z,4.40
2023-04-23T18:40:50.699Z,3.90
2023-04-23T18:43:17.924Z,4.03
2023-04-23T18:45:46.179Z,5.00
2023-04-23T18:48:40.875Z,3.20
2023-04-23T18:51:13.778Z,2.37
2023-04-23T18:53:40.107Z,4.50
2023-04-23T18:56:06.263Z,3.30
2023-04-23T18:58:33.262Z,2.87
2023-04-23T19:00:59.486Z,2.37
2023-04-23T19:03:27.175Z,2.13
2023-04-23T19:05:53.827Z,2.70
2023-04-23T19:08:21.852Z,3.43
2023-04-23T19:10:48.200Z,2.20
2023-04-23T19:13:14.591Z,3.43
2023-04-23T19:15:41.431Z,2.00
2023-04-23T19:18:07.649Z,1.70
2023-04-23T19:20:33.776Z,1.67
2023-04-23T19:22:59.889Z,2.30
2023-04-23T19:25:26.316Z,1.63
2023-04-23T19:27:52.542Z,1.80
2023-04-23T19:30:18.738Z,1.80
2023-04-23T19:32:45.552Z,2.17
2023-04-23T19:35:11.823Z,2.40
2023-04-23T19:37:38.087Z,1.67
2023-04-23T19:40:06.237Z,1.77
2023-04-23T19:42:32.408Z,1.57
2023-04-23T19:44:58.520Z,1.60
2023-04-23T19:47:24.855Z,2.43
2023-04-23T19:49:51.813Z,2.17
2023-04-23T19:52:20.047Z,1.60
2023-04-23T19:54:48.341Z,1.37
2023-04-23T19:57:14.551Z,1.00
2023-04-23T19:59:40.891Z,0.93
2023-04-23T20:02:07.671Z,0.73
2023-04-23T20:04:33.922Z,2.70
2023-04-23T20:07:00.893Z,2.40
2023-04-23T20:09:27.420Z,2.73
2023-04-23T20:11:53.663Z,0.70
2023-04-23T20:14:20.138Z,0.73
2023-04-23T20:16:46.839Z,2.07
2023-04-23T20:19:13.449Z,2.30
2023-04-23T20:21:40.411Z,1.00
2023-04-23T20:24:07.881Z,3.93
2023-04-23T20:26:34.514Z,2.27
2023-04-23T20:29:00.806Z,0.60
2023-04-23T20:31:26.979Z,1.10
2023-04-23T20:33:53.411Z,0.83
2023-04-23T20:36:19.638Z,0.50
2023-04-23T20:38:46.451Z,0.70
2023-04-23T20:41:13.452Z,3.63
2023-04-23T20:43:42.833Z,1.00
2023-04-23T20:46:09.376Z,0.80
2023-04-23T20:48:36.283Z,1.60
2023-04-23T20:51:02.729Z,0.50
2023-04-23T20:53:28.932Z,0.80
2023-04-23T20:55:55.724Z,1.50
2023-04-23T20:58:23.000Z,0.70
2023-04-23T21:00:50.493Z,0.80
2023-04-23T21:03:16.868Z,0.83
2023-04-23T21:05:43.875Z,0.87
2023-04-23T21:08:10.645Z,0.63
2023-04-23T21:10:37.646Z,0.60
2023-04-23T21:13:04.808Z,0.60
2023-04-23T21:15:33.284Z,0.70
2023-04-23T21:18:00.168Z,0.97
2023-04-23T21:20:26.357Z,1.93
2023-04-23T21:22:52.743Z,1.10
2023-04-23T21:25:19.001Z,0.60
2023-04-23T21:27:48.448Z,0.70
2023-04-23T21:30:22.473Z,0.50
2023-04-23T21:32:51.234Z,3.17
2023-04-23T21:35:17.579Z,4.70
2023-04-23T21:37:43.695Z,0.77
2023-04-23T21:40:10.042Z,0.60
2023-04-23T21:42:36.213Z,1.50
2023-04-23T21:45:02.457Z,6.50
2023-04-23T21:47:28.638Z,0.97
2023-04-23T21:49:55.998Z,0.60
2023-04-23T21:52:22.318Z,0.67
2023-04-23T21:54:48.579Z,2.40
2023-04-23T21:57:14.719Z,0.70
2023-04-23T21:59:41.407Z,1.57
2023-04-23T22:02:07.887Z,3.70
2023-04-23T22:04:34.291Z,1.03
2023-04-23T22:07:04.700Z,0.57
2023-04-23T22:09:31.133Z,0.50
2023-04-23T22:14:27.054Z,0.90
2023-04-23T22:16:54.342Z,4.10
2023-04-23T22:19:20.602Z,1.50
2023-04-23T22:21:46.734Z,0.33
2023-04-23T22:24:13.458Z,3.37
2023-04-23T22:26:39.715Z,4.60
2023-04-23T22:29:05.898Z,0.80
2023-04-23T22:31:32.052Z,0.60
2023-04-23T22:33:58.196Z,0.87
2023-04-23T22:36:24.826Z,0.73
2023-04-23T22:38:51.080Z,4.77
2023-04-23T22:41:17.952Z,1.53
2023-04-23T22:43:44.216Z,1.70
2023-04-23T22:46:10.478Z,1.40
2023-04-23T22:48:43.136Z,0.60
2023-04-23T22:51:10.139Z,2.30
2023-04-23T22:53:36.390Z,0.97
2023-04-23T22:56:02.601Z,1.87
2023-04-23T22:58:29.850Z,1.47
2023-04-23T23:00:55.972Z,1.83
2023-04-23T23:03:22.310Z,0.83
2023-04-23T23:05:48.472Z,0.93
2023-04-23T23:08:14.590Z,1.83
2023-04-23T23:10:40.751Z,3.00
2023-04-23T23:13:06.940Z,0.70
2023-04-23T23:15:34.371Z,1.57
2023-04-23T23:18:00.970Z,0.77
2023-04-23T23:20:27.189Z,0.97
2023-04-23T23:22:53.700Z,1.37
2023-04-23T23:25:19.871Z,1.27
2023-04-23T23:27:46.000Z,1.17
2023-04-23T23:30:12.113Z,2.10
2023-04-23T23:32:38.954Z,2.57
2023-04-23T23:35:05.918Z,0.70
2023-04-23T23:37:32.269Z,2.50
2023-04-23T23:39:58.593Z,3.33
2023-04-23T23:42:24.781Z,0.80
2023-04-23T23:44:50.905Z,1.37
2023-04-23T23:47:17.004Z,1.17
2023-04-23T23:49:43.958Z,1.37
2023-04-23T23:52:10.343Z,3.70
2023-04-23T23:54:36.456Z,3.33
2023-04-23T23:57:02.851Z,1.50
2023-04-23T23:59:29.015Z,2.63
